createdAt,value
2023-03-15T00:01:52.476Z,2.85
2023-03-15T00:04:22.522Z,2.80
2023-03-15T00:06:50.575Z,2.76
2023-03-15T00:09:18.625Z,2.69
2023-03-15T00:11:49.023Z,2.82
2023-03-15T00:14:17.068Z,2.88
2023-03-15T00:16:45.033Z,2.81
2023-03-15T00:19:13.341Z,3.00
2023-03-15T00:21:43.478Z,2.87
2023-03-15T00:24:13.102Z,2.90
2023-03-15T00:26:41.427Z,2.94
2023-03-15T00:29:09.574Z,2.80
2023-03-15T00:31:37.514Z,2.82
2023-03-15T00:34:05.568Z,2.84
2023-03-15T00:36:33.712Z,2.82
2023-03-15T00:39:03.716Z,3.04
2023-03-15T00:41:32.171Z,2.96
2023-03-15T00:44:00.457Z,3.07
2023-03-15T00:46:28.522Z,3.07
2023-03-15T00:48:56.528Z,3.13
2023-03-15T00:51:25.218Z,3.11
2023-03-15T00:53:54.123Z,2.99
2023-03-15T00:56:30.088Z,3.09
2023-03-15T00:58:58.511Z,3.18
2023-03-15T01:01:27.536Z,3.15
2023-03-15T01:03:56.026Z,2.98
2023-03-15T01:06:24.892Z,2.88
2023-03-15T01:08:54.536Z,2.81
2023-03-15T01:11:24.423Z,2.69
2023-03-15T01:13:54.522Z,2.77
2023-03-15T01:16:22.835Z,2.61
2023-03-15T01:18:51.636Z,2.57
2023-03-15T01:21:19.724Z,2.76
2023-03-15T01:23:47.801Z,2.72
2023-03-15T01:26:17.253Z,2.77
2023-03-15T01:28:45.234Z,2.70
2023-03-15T01:31:18.294Z,2.53
2023-03-15T01:33:46.335Z,2.74
2023-03-15T01:36:14.514Z,2.80
2023-03-15T01:38:42.628Z,2.82
2023-03-15T01:41:11.180Z,2.61
2023-03-15T01:43:39.647Z,2.78
2023-03-15T01:46:34.318Z,2.88
2023-03-15T01:49:06.267Z,2.76
2023-03-15T01:51:37.061Z,2.67
2023-03-15T01:54:08.050Z,2.70
2023-03-15T01:56:36.645Z,2.84
2023-03-15T01:59:05.861Z,2.71
2023-03-15T02:01:35.460Z,2.66
2023-03-15T02:04:05.159Z,2.77
2023-03-15T02:06:34.967Z,2.92
2023-03-15T02:09:04.678Z,2.71
2023-03-15T02:11:32.969Z,2.82
2023-03-15T02:14:01.015Z,2.74
2023-03-15T02:16:30.326Z,2.82
2023-03-15T02:18:59.821Z,2.70
2023-03-15T02:21:34.922Z,2.92
2023-03-15T02:24:07.381Z,2.86
2023-03-15T02:26:38.722Z,2.86
2023-03-15T02:29:08.505Z,2.75
2023-03-15T02:31:38.322Z,2.73
2023-03-15T02:34:06.856Z,2.77
2023-03-15T02:36:35.239Z,2.66
2023-03-15T02:39:03.481Z,2.72
2023-03-15T02:41:33.723Z,2.78
2023-03-15T02:44:04.663Z,2.77
2023-03-15T02:46:37.106Z,2.81
2023-03-15T02:49:05.097Z,2.76
2023-03-15T02:51:33.561Z,2.90
2023-03-15T02:54:01.533Z,2.89
2023-03-15T02:56:29.576Z,3.05
2023-03-15T02:58:57.664Z,2.90
2023-03-15T03:01:25.802Z,3.01
2023-03-15T03:03:55.246Z,3.09
2023-03-15T03:06:23.274Z,2.98
2023-03-15T03:08:51.328Z,3.00
2023-03-15T03:11:19.530Z,3.01
2023-03-15T03:13:47.628Z,3.03
2023-03-15T03:16:15.761Z,3.02
2023-03-15T03:18:43.860Z,3.01
2023-03-15T03:21:14.881Z,2.99
2023-03-15T03:23:46.381Z,2.79
2023-03-15T03:26:17.146Z,2.86
2023-03-15T03:28:45.722Z,2.93
2023-03-15T03:31:17.945Z,2.78
2023-03-15T03:33:46.005Z,2.66
2023-03-15T03:36:16.910Z,2.70
2023-03-15T03:38:46.012Z,2.67
2023-03-15T03:41:14.405Z,2.84
2023-03-15T03:43:42.389Z,2.91
2023-03-15T03:46:10.490Z,2.93
2023-03-15T03:48:40.578Z,3.01
2023-03-15T03:51:08.636Z,2.78
2023-03-15T03:53:38.295Z,3.00
2023-03-15T03:56:06.695Z,2.84
2023-03-15T03:58:35.090Z,2.83
2023-03-15T04:01:04.109Z,2.73
2023-03-15T04:03:32.650Z,2.62
2023-03-15T04:06:01.305Z,2.80
2023-03-15T04:08:29.295Z,2.88
2023-03-15T04:11:00.294Z,2.76
2023-03-15T04:13:28.266Z,2.82
2023-03-15T04:15:57.835Z,2.97
2023-03-15T04:18:26.465Z,2.88
2023-03-15T04:20:54.866Z,2.96
2023-03-15T04:23:23.462Z,2.97
2023-03-15T04:25:51.462Z,2.82
2023-03-15T04:28:20.890Z,2.87
2023-03-15T04:30:49.550Z,2.91
2023-03-15T04:33:17.957Z,2.87
2023-03-15T04:35:46.239Z,2.76
2023-03-15T04:38:14.492Z,2.72
2023-03-15T04:40:42.986Z,2.72
2023-03-15T04:43:10.958Z,2.88
2023-03-15T04:45:40.361Z,2.94
2023-03-15T04:48:08.541Z,2.76
2023-03-15T04:50:36.527Z,2.92
2023-03-15T04:53:04.564Z,2.76
2023-03-15T04:55:32.828Z,2.79
2023-03-15T04:58:01.177Z,2.55
2023-03-15T05:00:29.289Z,2.19
2023-03-15T05:02:58.812Z,2.25
2023-03-15T05:05:26.944Z,2.33
2023-03-15T05:07:55.129Z,2.53
2023-03-15T05:10:23.499Z,2.60
2023-03-15T05:12:51.527Z,2.63
2023-03-15T05:15:19.623Z,2.52
2023-03-15T05:17:48.751Z,2.54
2023-03-15T05:20:18.410Z,2.57
2023-03-15T05:22:46.452Z,2.68
2023-03-15T05:25:15.443Z,2.71
2023-03-15T05:27:46.444Z,2.62
2023-03-15T05:30:15.583Z,2.72
2023-03-15T05:32:44.975Z,2.82
2023-03-15T05:35:13.124Z,2.71
2023-03-15T05:37:43.068Z,2.72
2023-03-15T05:40:12.287Z,2.73
2023-03-15T05:42:40.273Z,2.76
2023-03-15T05:45:11.323Z,2.76
2023-03-15T05:47:39.382Z,2.76
2023-03-15T05:50:08.267Z,2.72
2023-03-15T05:52:36.654Z,2.75
2023-03-15T05:55:06.611Z,2.72
2023-03-15T05:57:34.789Z,2.78
2023-03-15T06:00:05.349Z,2.75
2023-03-15T06:02:33.430Z,2.93
2023-03-15T06:05:01.464Z,2.83
2023-03-15T06:07:29.556Z,2.75
2023-03-15T06:09:57.933Z,2.68
2023-03-15T06:12:27.370Z,2.59
2023-03-15T06:14:55.378Z,2.66
2023-03-15T06:17:23.856Z,2.80
2023-03-15T06:19:52.509Z,2.45
2023-03-15T06:22:21.140Z,2.49
2023-03-15T06:24:49.266Z,2.56
2023-03-15T06:27:22.081Z,2.50
2023-03-15T06:29:52.329Z,2.58
2023-03-15T06:32:20.484Z,2.67
2023-03-15T06:34:52.778Z,2.58
2023-03-15T06:37:34.597Z,2.56
2023-03-15T06:40:06.075Z,2.43
2023-03-15T06:42:34.391Z,2.49
2023-03-15T06:45:08.171Z,2.39
2023-03-15T06:47:37.237Z,2.53
2023-03-15T06:50:05.530Z,2.72
2023-03-15T06:52:33.641Z,2.51
2023-03-15T06:55:01.984Z,2.34
2023-03-15T06:57:31.643Z,2.41
2023-03-15T06:59:59.817Z,2.41
2023-03-15T07:02:33.982Z,2.51
2023-03-15T07:05:02.943Z,2.32
2023-03-15T07:07:30.992Z,2.58
2023-03-15T07:09:59.864Z,2.34
2023-03-15T07:12:27.928Z,2.48
2023-03-15T07:14:56.419Z,2.30
2023-03-15T07:17:24.728Z,2.48
2023-03-15T07:19:56.832Z,2.32
2023-03-15T07:22:25.322Z,2.44
2023-03-15T07:24:53.983Z,2.59
2023-03-15T07:27:22.051Z,2.73
2023-03-15T07:29:50.371Z,2.51
2023-03-15T07:32:18.877Z,2.63
2023-03-15T07:34:48.080Z,2.64
2023-03-15T07:37:18.341Z,2.87
2023-03-15T07:39:46.712Z,2.82
2023-03-15T07:42:14.893Z,2.93
2023-03-15T07:44:43.296Z,2.75
2023-03-15T07:47:11.881Z,2.90
2023-03-15T07:49:39.847Z,3.18
2023-03-15T07:52:08.601Z,2.90
2023-03-15T07:54:38.558Z,2.71
2023-03-15T07:57:07.081Z,2.87
2023-03-15T07:59:35.076Z,2.99
2023-03-15T08:02:03.462Z,3.17
2023-03-15T08:04:31.859Z,3.16
2023-03-15T08:07:00.250Z,2.98
2023-03-15T08:09:28.906Z,3.10
2023-03-15T08:11:58.323Z,3.21
2023-03-15T08:14:26.633Z,3.10
2023-03-15T08:16:55.151Z,2.92
2023-03-15T08:19:23.353Z,3.33
2023-03-15T08:21:53.894Z,3.11
2023-03-15T08:24:22.675Z,2.95
2023-03-15T08:26:51.327Z,3.37
2023-03-15T08:29:20.851Z,3.39
2023-03-15T08:31:49.076Z,3.64
2023-03-15T08:34:17.683Z,3.33
2023-03-15T08:36:47.560Z,3.47
2023-03-15T08:39:16.048Z,3.34
2023-03-15T08:41:45.933Z,3.26
2023-03-15T08:44:14.136Z,3.20
2023-03-15T08:46:43.650Z,3.50
2023-03-15T08:49:11.738Z,3.46
2023-03-15T08:51:40.068Z,3.72
2023-03-15T08:54:08.137Z,3.60
2023-03-15T08:56:36.311Z,3.50
2023-03-15T08:59:06.912Z,3.77
2023-03-15T09:01:34.932Z,3.85
2023-03-15T09:04:06.872Z,3.71
2023-03-15T09:06:35.118Z,4.08
2023-03-15T09:09:03.770Z,4.10
2023-03-15T09:11:31.857Z,4.09
2023-03-15T09:13:59.893Z,4.29
2023-03-15T09:16:28.458Z,4.00
2023-03-15T09:18:56.594Z,4.12
2023-03-15T09:21:27.672Z,4.13
2023-03-15T09:23:55.654Z,3.76
2023-03-15T09:26:23.662Z,3.79
2023-03-15T09:28:51.770Z,4.31
2023-03-15T09:31:20.007Z,3.97
2023-03-15T09:33:50.228Z,4.50
2023-03-15T09:36:18.265Z,4.74
2023-03-15T09:38:48.457Z,4.74
2023-03-15T09:41:19.012Z,5.20
2023-03-15T09:44:04.352Z,5.10
2023-03-15T09:46:32.996Z,4.41
2023-03-15T09:49:04.470Z,4.29
2023-03-15T09:51:37.028Z,4.21
2023-03-15T09:54:07.812Z,4.43
2023-03-15T09:56:36.915Z,4.23
2023-03-15T09:59:05.428Z,4.57
2023-03-15T10:01:37.452Z,4.76
2023-03-15T10:04:09.890Z,4.65
2023-03-15T10:06:38.463Z,4.74
2023-03-15T10:09:13.933Z,4.87
2023-03-15T10:11:45.427Z,5.30
2023-03-15T10:14:19.828Z,5.44
2023-03-15T10:16:48.894Z,5.58
2023-03-15T10:19:23.459Z,5.79
2023-03-15T10:21:55.784Z,5.72
2023-03-15T10:24:30.067Z,5.13
2023-03-15T10:26:59.041Z,5.23
2023-03-15T10:29:27.268Z,5.45
2023-03-15T10:31:55.527Z,5.84
2023-03-15T10:34:26.313Z,5.45
2023-03-15T10:36:55.557Z,5.45
2023-03-15T10:39:25.879Z,5.61
2023-03-15T10:41:53.899Z,5.89
2023-03-15T10:44:22.711Z,5.63
2023-03-15T10:47:05.041Z,5.89
2023-03-15T10:49:42.568Z,5.85
2023-03-15T10:52:29.658Z,6.10
2023-03-15T10:55:04.385Z,5.82
2023-03-15T10:57:36.113Z,5.99
2023-03-15T11:00:10.286Z,5.97
2023-03-15T11:02:38.635Z,6.23
2023-03-15T11:05:17.263Z,6.12
2023-03-15T11:07:55.314Z,6.07
2023-03-15T11:10:27.143Z,5.46
2023-03-15T11:13:10.331Z,5.55
2023-03-15T11:15:38.867Z,5.84
2023-03-15T11:18:09.101Z,6.08
2023-03-15T11:20:38.472Z,6.16
2023-03-15T11:23:15.068Z,6.05
2023-03-15T11:25:44.476Z,6.48
2023-03-15T11:28:17.339Z,6.63
2023-03-15T11:30:47.272Z,6.45
2023-03-15T11:33:34.122Z,6.51
2023-03-15T11:36:03.858Z,6.21
2023-03-15T11:38:34.551Z,5.98
2023-03-15T11:41:06.566Z,6.43
2023-03-15T11:43:39.651Z,6.51
2023-03-15T11:46:10.508Z,6.46
2023-03-15T11:48:43.956Z,6.70
2023-03-15T11:51:12.334Z,6.89
2023-03-15T11:53:44.794Z,6.90
2023-03-15T11:56:29.711Z,6.21
2023-03-15T11:59:04.628Z,6.67
2023-03-15T12:01:32.795Z,6.59
2023-03-15T12:04:29.772Z,6.13
2023-03-15T12:06:58.547Z,6.18
2023-03-15T12:09:49.136Z,6.34
2023-03-15T12:12:37.994Z,6.16
2023-03-15T12:15:08.519Z,6.28
2023-03-15T12:17:45.307Z,6.28
2023-03-15T12:20:22.342Z,6.32
2023-03-15T12:22:52.712Z,6.41
2023-03-15T12:25:26.855Z,6.25
2023-03-15T12:27:57.379Z,6.33
2023-03-15T12:30:26.949Z,6.16
2023-03-15T12:32:55.998Z,5.88
2023-03-15T12:35:25.129Z,5.66
2023-03-15T12:37:53.564Z,6.01
2023-03-15T12:40:39.299Z,6.08
2023-03-15T12:43:09.370Z,6.26
2023-03-15T12:45:43.588Z,6.35
2023-03-15T12:48:25.524Z,6.66
2023-03-15T12:51:16.123Z,7.02
2023-03-15T12:54:00.072Z,7.02
2023-03-15T12:56:36.539Z,7.20
2023-03-15T12:59:16.017Z,7.28
2023-03-15T13:01:44.147Z,7.50
2023-03-15T13:04:12.659Z,7.59
2023-03-15T13:06:47.689Z,7.19
2023-03-15T13:09:22.331Z,7.25
2023-03-15T13:11:52.511Z,7.65
2023-03-15T13:14:29.101Z,7.46
2023-03-15T13:16:59.386Z,7.64
2023-03-15T13:19:27.947Z,7.07
2023-03-15T13:22:05.017Z,7.04
2023-03-15T13:24:38.925Z,7.53
2023-03-15T13:27:09.606Z,7.73
2023-03-15T13:29:39.101Z,7.40
2023-03-15T13:32:14.327Z,7.83
2023-03-15T13:34:42.756Z,7.95
2023-03-15T13:37:14.312Z,8.20
2023-03-15T13:39:54.054Z,8.21
2023-03-15T13:42:23.919Z,8.22
2023-03-15T13:45:22.667Z,8.37
2023-03-15T13:47:50.996Z,8.72
2023-03-15T13:50:22.945Z,8.55
2023-03-15T13:52:51.040Z,8.79
2023-03-15T13:55:35.382Z,8.93
2023-03-15T13:58:07.166Z,9.19
2023-03-15T14:00:36.790Z,9.09
2023-03-15T14:03:05.905Z,8.73
2023-03-15T14:05:36.603Z,8.34
2023-03-15T14:08:06.144Z,8.72
2023-03-15T14:10:34.835Z,8.50
2023-03-15T14:13:19.744Z,8.44
2023-03-15T14:15:49.579Z,8.55
2023-03-15T14:18:18.922Z,8.45
2023-03-15T14:20:47.745Z,8.36
2023-03-15T14:23:17.637Z,8.48
2023-03-15T14:25:45.719Z,7.95
2023-03-15T14:28:14.720Z,7.99
2023-03-15T14:30:42.760Z,7.80
2023-03-15T14:33:26.933Z,7.78
2023-03-15T14:35:55.643Z,7.83
2023-03-15T14:38:26.002Z,7.77
2023-03-15T14:40:55.913Z,7.92
2023-03-15T14:43:25.604Z,8.04
2023-03-15T14:45:54.128Z,8.16
2023-03-15T14:48:25.360Z,8.00
2023-03-15T14:50:53.450Z,8.22
2023-03-15T14:53:22.541Z,8.34
2023-03-15T14:55:50.886Z,8.12
2023-03-15T14:58:19.743Z,8.01
2023-03-15T15:00:49.677Z,8.47
2023-03-15T15:03:19.340Z,8.41
2023-03-15T15:05:48.893Z,7.96
2023-03-15T15:08:20.031Z,7.64
2023-03-15T15:10:49.804Z,7.95
2023-03-15T15:13:19.880Z,7.81
2023-03-15T15:15:55.747Z,8.01
2023-03-15T15:18:26.237Z,8.01
2023-03-15T15:20:56.594Z,8.21
2023-03-15T15:23:26.170Z,8.08
2023-03-15T15:25:57.462Z,7.87
2023-03-15T15:28:34.855Z,7.86
2023-03-15T15:31:06.797Z,7.72
2023-03-15T15:33:35.165Z,7.79
2023-03-15T15:36:04.999Z,7.78
2023-03-15T15:38:38.369Z,7.76
2023-03-15T15:41:07.221Z,7.62
2023-03-15T15:43:35.249Z,7.75
2023-03-15T15:46:05.060Z,7.75
2023-03-15T15:48:34.054Z,7.79
2023-03-15T15:51:03.040Z,7.54
2023-03-15T15:53:33.516Z,7.62
2023-03-15T15:56:03.032Z,7.64
2023-03-15T15:58:33.953Z,7.61
2023-03-15T16:01:02.084Z,7.45
2023-03-15T16:03:31.020Z,7.24
2023-03-15T16:05:59.211Z,7.46
2023-03-15T16:08:27.309Z,7.43
2023-03-15T16:10:58.733Z,7.18
2023-03-15T16:13:27.344Z,7.07
2023-03-15T16:15:55.663Z,7.24
2023-03-15T16:18:24.109Z,7.18
2023-03-15T16:20:53.391Z,7.26
2023-03-15T16:23:23.681Z,7.38
2023-03-15T16:25:53.587Z,7.14
2023-03-15T16:28:23.188Z,7.03
2023-03-15T16:30:51.738Z,7.18
2023-03-15T16:33:20.868Z,7.23
2023-03-15T16:35:50.431Z,7.29
2023-03-15T16:38:24.328Z,7.13
2023-03-15T16:40:53.330Z,6.98
2023-03-15T16:43:22.759Z,7.12
2023-03-15T16:45:51.087Z,6.90
2023-03-15T16:48:19.529Z,6.83
2023-03-15T16:50:48.383Z,6.80
2023-03-15T16:53:16.895Z,6.85
2023-03-15T16:55:44.918Z,6.71
2023-03-15T16:58:16.443Z,6.65
2023-03-15T17:00:48.380Z,6.62
2023-03-15T17:03:17.574Z,6.61
2023-03-15T17:05:46.776Z,6.55
2023-03-15T17:08:16.967Z,6.53
2023-03-15T17:10:45.303Z,6.40
2023-03-15T17:13:15.408Z,6.40
2023-03-15T17:15:45.365Z,6.30
2023-03-15T17:18:17.081Z,6.17
2023-03-15T17:20:45.234Z,6.13
2023-03-15T17:23:14.140Z,6.05
2023-03-15T17:25:42.414Z,5.83
2023-03-15T17:28:10.456Z,5.91
2023-03-15T17:30:39.301Z,5.69
2023-03-15T17:33:09.380Z,5.61
2023-03-15T17:35:39.367Z,5.57
2023-03-15T17:38:09.123Z,5.60
2023-03-15T17:40:37.318Z,5.62
2023-03-15T17:43:10.402Z,5.44
2023-03-15T17:45:40.708Z,5.40
2023-03-15T17:48:10.302Z,5.38
2023-03-15T17:50:38.463Z,5.30
2023-03-15T17:53:10.384Z,5.18
2023-03-15T17:55:39.144Z,5.11
2023-03-15T17:58:11.383Z,5.03
2023-03-15T18:00:39.820Z,5.02
2023-03-15T18:03:10.141Z,4.90
2023-03-15T18:05:38.221Z,4.88
2023-03-15T18:08:06.704Z,4.87
2023-03-15T18:10:35.720Z,4.71
2023-03-15T18:13:03.951Z,4.59
2023-03-15T18:15:32.191Z,4.66
2023-03-15T18:18:00.315Z,4.49
2023-03-15T18:20:29.779Z,4.51
2023-03-15T18:22:57.871Z,4.50
2023-03-15T18:25:27.537Z,4.55
2023-03-15T18:27:55.547Z,4.42
2023-03-15T18:30:24.140Z,4.37
2023-03-15T18:32:53.543Z,4.42
2023-03-15T18:35:24.057Z,4.36
2023-03-15T18:37:55.986Z,4.42
2023-03-15T18:40:24.124Z,4.32
2023-03-15T18:42:52.389Z,4.16
2023-03-15T18:45:21.655Z,4.13
2023-03-15T18:47:53.595Z,4.05
2023-03-15T18:50:22.909Z,4.05
2023-03-15T18:52:53.459Z,3.96
2023-03-15T18:55:22.295Z,4.05
2023-03-15T18:57:52.136Z,3.93
2023-03-15T19:00:26.263Z,3.93
2023-03-15T19:02:54.710Z,3.92
2023-03-15T19:05:22.980Z,3.90
2023-03-15T19:07:51.209Z,3.85
2023-03-15T19:10:21.340Z,3.88
2023-03-15T19:12:49.728Z,3.85
2023-03-15T19:15:21.528Z,3.75
2023-03-15T19:17:51.029Z,3.84
2023-03-15T19:20:24.005Z,3.72
2023-03-15T19:22:52.534Z,3.75
2023-03-15T19:25:22.146Z,3.84
2023-03-15T19:27:50.396Z,3.72
2023-03-15T19:30:23.173Z,3.71
2023-03-15T19:32:54.038Z,3.74
2023-03-15T19:35:24.706Z,3.76
2023-03-15T19:37:59.325Z,3.68
2023-03-15T19:40:28.846Z,3.72
2023-03-15T19:42:56.904Z,3.70
2023-03-15T19:45:25.390Z,3.79
2023-03-15T19:47:53.648Z,3.77
2023-03-15T19:50:21.871Z,3.69
2023-03-15T19:52:50.277Z,3.56
2023-03-15T19:55:19.282Z,3.67
2023-03-15T19:57:48.952Z,3.71
2023-03-15T20:00:19.236Z,3.67
2023-03-15T20:02:48.255Z,3.65
2023-03-15T20:05:17.160Z,3.81
2023-03-15T20:07:46.309Z,3.81
2023-03-15T20:10:15.038Z,3.77
2023-03-15T20:12:45.454Z,3.74
2023-03-15T20:15:18.306Z,3.73
2023-03-15T20:17:46.601Z,3.71
2023-03-15T20:20:14.890Z,3.73
2023-03-15T20:22:44.078Z,3.59
2023-03-15T20:25:12.246Z,3.71
2023-03-15T20:27:40.613Z,3.67
2023-03-15T20:30:10.339Z,3.75
2023-03-15T20:32:39.741Z,3.67
2023-03-15T20:35:10.036Z,3.74
2023-03-15T20:37:40.288Z,3.78
2023-03-15T20:40:11.051Z,3.75
2023-03-15T20:42:39.792Z,3.70
2023-03-15T20:45:12.454Z,3.78
2023-03-15T20:47:42.138Z,3.65
2023-03-15T20:50:13.424Z,3.68
2023-03-15T20:52:43.050Z,3.64
2023-03-15T20:55:17.891Z,3.46
2023-03-15T20:57:46.558Z,3.50
2023-03-15T21:00:18.712Z,3.39
2023-03-15T21:02:49.271Z,3.37
2023-03-15T21:05:18.594Z,3.35
2023-03-15T21:07:46.961Z,3.30
2023-03-15T21:10:15.640Z,3.25
2023-03-15T21:12:44.015Z,3.39
2023-03-15T21:15:15.421Z,3.35
2023-03-15T21:17:43.541Z,3.30
2023-03-15T21:20:15.877Z,3.33
2023-03-15T21:22:43.955Z,3.10
2023-03-15T21:25:13.402Z,3.18
2023-03-15T21:27:41.819Z,3.20
2023-03-15T21:30:13.946Z,3.12
2023-03-15T21:32:42.945Z,3.03
2023-03-15T21:35:13.367Z,3.04
2023-03-15T21:37:41.754Z,3.18
2023-03-15T21:40:11.536Z,3.14
2023-03-15T21:42:42.707Z,3.07
2023-03-15T21:45:12.386Z,2.89
2023-03-15T21:47:41.070Z,3.04
2023-03-15T21:50:11.710Z,2.87
2023-03-15T21:52:41.492Z,2.89
2023-03-15T21:55:10.540Z,2.89
2023-03-15T21:57:38.603Z,2.75
2023-03-15T22:00:16.808Z,2.79
2023-03-15T22:02:44.952Z,2.83
2023-03-15T22:05:13.302Z,2.71
2023-03-15T22:07:42.890Z,2.66
2023-03-15T22:10:12.126Z,2.52
2023-03-15T22:12:40.336Z,2.61
2023-03-15T22:15:09.670Z,2.50
2023-03-15T22:17:38.169Z,2.55
2023-03-15T22:20:09.513Z,2.64
2023-03-15T22:22:38.250Z,2.67
2023-03-15T22:25:08.242Z,2.55
2023-03-15T22:27:36.210Z,2.39
2023-03-15T22:30:04.728Z,2.44
2023-03-15T22:32:32.908Z,2.47
2023-03-15T22:35:00.976Z,2.30
2023-03-15T22:37:29.062Z,2.30
2023-03-15T22:39:57.215Z,2.37
2023-03-15T22:42:26.627Z,2.34
2023-03-15T22:44:54.657Z,2.41
2023-03-15T22:47:22.793Z,2.39
2023-03-15T22:49:52.117Z,2.40
2023-03-15T22:52:20.154Z,2.37
2023-03-15T22:54:48.992Z,2.34
2023-03-15T22:57:17.594Z,2.31
2023-03-15T22:59:47.552Z,2.35
2023-03-15T23:02:15.907Z,2.41
2023-03-15T23:04:45.356Z,2.46
2023-03-15T23:07:13.428Z,2.34
2023-03-15T23:09:41.467Z,2.44
2023-03-15T23:12:09.971Z,2.36
2023-03-15T23:14:38.019Z,2.18
2023-03-15T23:17:07.537Z,2.24
2023-03-15T23:19:35.589Z,2.27
2023-03-15T23:22:04.428Z,2.22
2023-03-15T23:24:34.048Z,2.20
2023-03-15T23:27:04.577Z,2.23
2023-03-15T23:29:38.065Z,2.18
2023-03-15T23:32:13.320Z,2.34
2023-03-15T23:34:42.967Z,2.28
2023-03-15T23:37:11.309Z,2.19
2023-03-15T23:39:39.371Z,2.17
2023-03-15T23:42:08.110Z,2.10
2023-03-15T23:44:36.952Z,2.23
2023-03-15T23:47:05.767Z,2.11
2023-03-15T23:49:35.357Z,2.20
2023-03-15T23:52:05.834Z,2.23
2023-03-15T23:54:39.709Z,2.05
2023-03-15T23:57:08.096Z,2.00
2023-03-15T23:59:36.794Z,2.11
